Time;durP1;ratioP1;P1;durP2;ratioP2;P2;SDS_P1;SDS_P2;PMS_P1;PMS_P2;Temp;Humidity;BMP_temperature;BMP_pressure;BME280_temperature;BME280_humidity;BME280_pressure;Samples;Min_cycle;Max_cycle;Signal;HPM_P1;HPM_P2
2023/04/04 03:01:08;;;;;;;2.10;1.20;;;3.30;62.10;;;;;;5767480;23;20505;-74
2023/04/04 03:03:35;;;;;;;2.50;1.27;;;3.20;62.30;;;;;;4974048;28;20505;-74
2023/04/04 03:06:02;;;;;;;3.10;1.50;;;3.20;62.40;;;;;;4974011;28;20438;-74
2023/04/04 03:08:28;;;;;;;3.00;1.47;;;3.20;62.80;;;;;;4973995;28;20438;-74
2023/04/04 03:10:55;;;;;;;2.60;1.17;;;3.20;62.80;;;;;;4978306;28;20524;-74
2023/04/04 03:13:22;;;;;;;3.37;1.27;;;3.20;62.80;;;;;;4993022;28;20934;-75
2023/04/04 03:15:49;;;;;;;3.23;1.40;;;3.10;62.70;;;;;;5016632;23;20893;-70
2023/04/04 03:18:17;;;;;;;3.77;1.30;;;3.10;62.80;;;;;;4996163;28;20536;-70
2023/04/04 03:20:44;;;;;;;2.50;1.17;;;3.10;63.00;;;;;;4995736;28;20519;-69
2023/04/04 03:23:11;;;;;;;3.20;1.67;;;3.00;62.90;;;;;;4998662;28;20453;-68
2023/04/04 03:25:38;;;;;;;2.20;1.30;;;3.00;63.00;;;;;;4998724;28;20831;-69
2023/04/04 03:28:11;;;;;;;2.30;1.37;;;2.90;63.30;;;;;;4998647;28;20452;-68
2023/04/04 03:30:38;;;;;;;2.87;1.30;;;2.80;63.70;;;;;;4998974;28;20477;-69
2023/04/04 03:33:06;;;;;;;2.50;1.27;;;2.80;63.90;;;;;;4998421;28;20453;-68
2023/04/04 03:35:37;;;;;;;2.17;1.40;;;2.90;63.60;;;;;;4998019;28;20489;-68
2023/04/04 03:38:04;;;;;;;2.63;1.73;;;2.90;63.70;;;;;;4998205;28;20429;-69
2023/04/04 03:40:31;;;;;;;2.50;1.70;;;2.80;63.90;;;;;;4998453;28;20484;-69
2023/04/04 03:42:57;;;;;;;2.10;1.10;;;2.80;64.00;;;;;;4997947;28;20511;-69
2023/04/04 03:45:24;;;;;;;2.20;1.30;;;2.80;64.00;;;;;;4998100;28;20867;-69
2023/04/04 03:47:51;;;;;;;2.53;1.53;;;2.80;63.90;;;;;;4998054;28;20478;-69
2023/04/04 03:50:17;;;;;;;2.60;1.37;;;2.80;64.00;;;;;;4997975;28;20458;-68
2023/04/04 03:52:46;;;;;;;3.03;1.50;;;2.80;64.00;;;;;;4997880;28;20500;-69
2023/04/04 03:55:13;;;;;;;3.10;1.33;;;2.80;63.70;;;;;;4998219;28;20473;-69
2023/04/04 03:57:39;;;;;;;3.43;1.60;;;2.90;63.60;;;;;;4998018;28;20805;-69
2023/04/04 04:00:07;;;;;;;3.10;1.27;;;2.90;63.70;;;;;;4999045;28;20444;-68
2023/04/04 04:02:34;;;;;;;2.57;1.33;;;2.90;63.60;;;;;;5000535;28;20452;-69
2023/04/04 04:05:00;;;;;;;2.20;1.30;;;2.80;63.60;;;;;;4999648;28;21048;-69
2023/04/04 04:07:27;;;;;;;2.60;1.40;;;2.80;63.80;;;;;;4998901;28;20860;-69
2023/04/04 04:09:55;;;;;;;2.30;1.40;;;2.80;63.70;;;;;;4998817;28;21021;-69
2023/04/04 04:12:22;;;;;;;2.13;1.37;;;2.80;63.70;;;;;;4998907;28;21016;-68
2023/04/04 04:14:49;;;;;;;3.37;2.00;;;2.80;63.70;;;;;;4998655;28;20472;-69
2023/04/04 04:17:15;;;;;;;4.10;1.80;;;2.80;63.70;;;;;;4998234;28;20474;-68
2023/04/04 04:19:42;;;;;;;2.60;1.40;;;2.80;63.80;;;;;;4998568;28;20445;-68
2023/04/04 04:22:09;;;;;;;3.00;1.53;;;2.90;63.90;;;;;;4998478;28;21021;-68
2023/04/04 04:24:35;;;;;;;3.60;1.63;;;2.90;63.70;;;;;;4998333;28;20519;-70
2023/04/04 04:27:04;;;;;;;3.20;2.17;;;2.80;63.80;;;;;;4998555;28;20528;-69
2023/04/04 04:29:30;;;;;;;2.83;1.37;;;2.80;63.50;;;;;;4998818;28;20449;-68
2023/04/04 04:31:57;;;;;;;2.23;1.30;;;2.90;63.40;;;;;;4998533;28;20457;-69
2023/04/04 04:34:24;;;;;;;3.40;1.97;;;2.90;63.30;;;;;;4998297;28;20453;-69
2023/04/04 04:36:51;;;;;;;2.70;1.37;;;2.90;63.30;;;;;;4998226;28;20516;-69
2023/04/04 04:39:18;;;;;;;2.60;1.50;;;2.80;63.70;;;;;;4998001;28;20449;-69
2023/04/04 04:41:44;;;;;;;2.70;1.47;;;2.80;63.60;;;;;;4998277;28;20457;-69
2023/04/04 04:44:13;;;;;;;2.40;1.50;;;2.80;63.50;;;;;;4997972;28;20459;-68
2023/04/04 04:46:39;;;;;;;2.60;1.60;;;2.70;63.60;;;;;;4998153;28;20512;-68
2023/04/04 04:49:06;;;;;;;2.50;1.33;;;2.80;63.50;;;;;;4998120;28;20875;-68
2023/04/04 04:51:33;;;;;;;3.33;1.63;;;2.80;63.50;;;;;;4997905;28;20452;-69
2023/04/04 04:53:59;;;;;;;2.40;1.40;;;2.70;63.30;;;;;;4998356;28;20452;-70
2023/04/04 04:56:26;;;;;;;2.60;1.50;;;2.70;63.80;;;;;;4997865;28;20997;-69
2023/04/04 04:58:53;;;;;;;2.37;1.33;;;2.70;63.50;;;;;;4997558;28;20984;-70
2023/04/04 05:01:21;;;;;;;2.37;1.53;;;2.70;63.30;;;;;;4997074;28;20481;-69
2023/04/04 05:03:47;;;;;;;2.60;1.30;;;2.60;63.50;;;;;;4997394;28;20454;-68
2023/04/04 05:06:14;;;;;;;2.40;1.40;;;2.50;63.10;;;;;;4998478;28;20489;-69
2023/04/04 05:08:41;;;;;;;2.87;1.47;;;2.50;63.40;;;;;;4997491;28;20817;-70
2023/04/04 05:11:07;;;;;;;3.00;1.37;;;2.60;63.40;;;;;;4997454;28;20458;-69
2023/04/04 05:13:34;;;;;;;4.40;1.50;;;2.70;63.30;;;;;;4997734;28;20453;-69
2023/04/04 05:16:02;;;;;;;2.87;1.70;;;2.70;63.40;;;;;;4997258;28;20528;-69
2023/04/04 05:18:31;;;;;;;3.40;2.37;;;2.80;63.30;;;;;;4996630;28;20942;-69
2023/04/04 05:20:57;;;;;;;2.90;1.77;;;2.80;63.30;;;;;;4996860;28;20449;-69
2023/04/04 05:23:25;;;;;;;2.50;1.83;;;2.90;62.70;;;;;;4996341;28;20872;-69
2023/04/04 05:25:52;;;;;;;3.80;2.17;;;2.80;62.70;;;;;;4996749;28;20466;-69
2023/04/04 05:28:19;;;;;;;2.77;1.83;;;2.90;62.50;;;;;;4997211;28;20472;-70
2023/04/04 05:30:45;;;;;;;3.50;2.23;;;3.00;62.30;;;;;;4997415;28;20453;-70
2023/04/04 05:33:12;;;;;;;2.23;1.23;;;3.20;62.30;;;;;;4994595;28;20795;-69
2023/04/04 05:35:40;;;;;;;2.27;1.50;;;3.20;62.00;;;;;;4995071;28;20512;-70
2023/04/04 05:38:07;;;;;;;2.10;1.40;;;3.20;61.60;;;;;;4995775;28;20476;-69
2023/04/04 05:40:34;;;;;;;3.13;1.63;;;3.20;61.70;;;;;;4995803;28;20476;-71
2023/04/04 05:43:03;;;;;;;2.23;1.40;;;3.40;61.00;;;;;;4994809;28;20551;-69
2023/04/04 05:45:30;;;;;;;2.60;1.50;;;3.30;61.40;;;;;;4994084;28;20473;-70
2023/04/04 05:47:56;;;;;;;3.40;1.77;;;3.50;61.00;;;;;;4994273;28;20500;-69
2023/04/04 05:50:23;;;;;;;2.50;1.57;;;3.40;61.40;;;;;;4994225;28;20448;-69
2023/04/04 05:52:53;;;;;;;3.20;1.70;;;3.40;61.10;;;;;;4994424;28;20445;-68
2023/04/04 05:55:20;;;;;;;3.43;1.40;;;3.60;61.10;;;;;;4994197;28;20520;-69
2023/04/04 05:57:48;;;;;;;2.50;1.70;;;3.80;60.60;;;;;;4994374;28;20605;-69
2023/04/04 06:00:16;;;;;;;3.00;1.60;;;4.50;59.40;;;;;;4994311;28;20528;-69
2023/04/04 06:02:43;;;;;;;2.80;1.30;;;5.60;57.30;;;;;;4994275;28;20445;-69
2023/04/04 06:05:10;;;;;;;2.47;1.30;;;6.80;54.10;;;;;;4994148;28;20477;-70
2023/04/04 06:07:37;;;;;;;2.60;1.43;;;7.60;52.20;;;;;;4994245;28;20473;-70
2023/04/04 06:10:06;;;;;;;2.27;1.37;;;8.70;50.00;;;;;;4994195;28;20449;-70
2023/04/04 06:12:33;;;;;;;2.50;1.47;;;9.60;48.10;;;;;;4994693;28;20461;-70
2023/04/04 06:14:59;;;;;;;4.10;2.00;;;10.50;46.00;;;;;;4994422;28;20477;-70
2023/04/04 06:17:26;;;;;;;2.73;1.47;;;10.40;45.10;;;;;;4994234;28;20493;-70
2023/04/04 06:19:54;;;;;;;2.97;1.80;;;9.90;45.90;;;;;;4994408;28;20874;-70
2023/04/04 06:22:20;;;;;;;3.37;1.83;;;11.30;45.20;;;;;;4994163;28;20493;-70
2023/04/04 06:24:47;;;;;;;2.20;1.30;;;12.40;42.60;;;;;;4994653;28;20476;-70
2023/04/04 06:27:15;;;;;;;2.30;1.30;;;12.40;41.50;;;;;;4994769;28;20456;-70
2023/04/04 06:29:42;;;;;;;2.30;1.47;;;12.70;41.60;;;;;;4994286;28;20469;-70
2023/04/04 06:32:09;;;;;;;2.70;1.50;;;12.80;40.70;;;;;;4994302;28;20461;-70
2023/04/04 06:34:37;;;;;;;2.43;1.50;;;12.30;41.60;;;;;;4993872;28;20858;-70
2023/04/04 06:37:03;;;;;;;2.60;1.27;;;11.70;41.30;;;;;;4994423;28;20477;-69
2023/04/04 06:39:33;;;;;;;2.37;1.47;;;11.00;43.10;;;;;;4993988;28;20450;-70
2023/04/04 06:42:00;;;;;;;2.60;1.50;;;11.60;42.70;;;;;;4994199;28;20973;-71
2023/04/04 06:44:28;;;;;;;3.33;1.53;;;11.60;42.70;;;;;;4993898;28;20866;-71
2023/04/04 06:46:54;;;;;;;2.93;1.57;;;11.50;42.40;;;;;;4993909;28;20857;-70
2023/04/04 06:49:21;;;;;;;2.80;1.30;;;12.30;41.60;;;;;;4994116;28;20457;-70
2023/04/04 06:51:49;;;;;;;3.40;1.43;;;12.60;40.80;;;;;;4994107;28;20505;-71
2023/04/04 06:54:16;;;;;;;2.67;1.67;;;13.00;38.90;;;;;;4995240;28;20529;-70
2023/04/04 06:56:43;;;;;;;2.20;1.40;;;13.20;39.30;;;;;;4996836;28;20866;-71
2023/04/04 06:59:10;;;;;;;2.93;1.40;;;13.60;39.80;;;;;;4997385;28;20857;-70
2023/04/04 07:01:38;;;;;;;2.10;1.17;;;14.50;38.00;;;;;;4997934;28;20461;-71
2023/04/04 07:04:05;;;;;;;2.30;1.57;;;14.30;37.40;;;;;;4998060;28;20453;-70
2023/04/04 07:06:32;;;;;;;2.40;1.50;;;13.10;38.10;;;;;;4997618;28;21097;-71
2023/04/04 07:08:58;;;;;;;2.43;1.20;;;11.90;41.40;;;;;;4998103;28;20453;-71
2023/04/04 07:11:25;;;;;;;2.37;1.20;;;11.30;41.40;;;;;;4998108;28;20453;-70
2023/04/04 07:13:52;;;;;;;2.50;1.10;;;10.00;42.80;;;;;;4997659;28;20448;-72
2023/04/04 07:16:19;;;;;;;2.87;1.87;;;9.20;45.00;;;;;;4997205;28;20540;-70
2023/04/04 07:18:47;;;;;;;2.43;1.50;;;8.50;47.00;;;;;;4998004;28;20464;-70
2023/04/04 07:21:15;;;;;;;2.70;1.60;;;7.90;47.30;;;;;;4997705;28;20450;-70
2023/04/04 07:23:41;;;;;;;2.67;1.60;;;7.20;48.50;;;;;;4997515;28;20468;-71
2023/04/04 07:26:08;;;;;;;3.00;1.50;;;6.70;50.30;;;;;;4997608;28;20516;-70
2023/04/04 07:28:35;;;;;;;2.30;1.30;;;6.50;51.20;;;;;;4997451;28;20496;-71
2023/04/04 07:31:02;;;;;;;2.40;1.50;;;6.00;51.00;;;;;;4997207;28;20453;-70
2023/04/04 07:33:29;;;;;;;2.83;1.40;;;6.00;52.90;;;;;;4997466;28;20457;-70
2023/04/04 07:35:57;;;;;;;2.60;1.50;;;6.00;52.40;;;;;;4997616;28;20563;-70
2023/04/04 07:38:24;;;;;;;2.60;1.57;;;5.70;52.10;;;;;;4996757;28;20496;-70
2023/04/04 07:40:50;;;;;;;3.27;2.30;;;5.10;52.50;;;;;;4996872;28;20453;-70
2023/04/04 07:43:17;;;;;;;3.67;1.50;;;4.70;53.30;;;;;;4996693;28;20507;-70
2023/04/04 07:45:44;;;;;;;2.10;1.20;;;4.40;53.90;;;;;;4996497;28;20477;-70
2023/04/04 07:48:11;;;;;;;2.30;1.47;;;4.50;54.40;;;;;;4996568;28;20446;-70
2023/04/04 07:50:37;;;;;;;2.60;1.63;;;4.60;54.50;;;;;;4997278;28;20453;-71
2023/04/04 07:53:05;;;;;;;3.27;1.70;;;4.70;54.50;;;;;;4996624;28;20449;-70
2023/04/04 07:55:32;;;;;;;3.00;1.90;;;5.00;55.20;;;;;;4996287;28;20528;-71
2023/04/04 07:57:58;;;;;;;4.70;1.83;;;5.00;54.10;;;;;;4996486;28;20556;-71
2023/04/04 08:00:25;;;;;;;2.97;1.47;;;5.10;54.10;;;;;;4996819;28;20519;-70
2023/04/04 08:02:53;;;;;;;2.60;1.50;;;5.00;53.70;;;;;;4996410;28;20994;-69
2023/04/04 08:05:20;;;;;;;2.50;1.30;;;5.00;54.50;;;;;;4996913;28;20469;-69
2023/04/04 08:07:47;;;;;;;2.20;1.27;;;4.90;54.30;;;;;;4996127;28;20472;-71
2023/04/04 08:10:16;;;;;;;2.50;1.50;;;4.90;53.80;;;;;;4996473;28;20477;-70
2023/04/04 08:12:43;;;;;;;2.20;1.20;;;4.70;54.90;;;;;;4996290;28;20460;-71
2023/04/04 08:15:11;;;;;;;2.23;1.33;;;4.80;55.90;;;;;;4995528;28;20568;-70
2023/04/04 08:17:38;;;;;;;3.03;2.03;;;4.90;54.80;;;;;;4996432;28;20496;-71
2023/04/04 08:20:05;;;;;;;2.87;1.57;;;5.00;55.20;;;;;;4997834;28;21013;-69
2023/04/04 08:22:32;;;;;;;3.27;1.50;;;5.20;55.00;;;;;;4997342;28;20453;-71
2023/04/04 08:24:59;;;;;;;4.00;1.50;;;5.30;55.30;;;;;;4997192;28;20503;-71
2023/04/04 08:27:27;;;;;;;2.40;1.60;;;5.40;55.10;;;;;;4997973;28;20491;-70
2023/04/04 08:29:54;;;;;;;2.47;1.47;;;5.50;55.00;;;;;;4997341;28;20480;-70
2023/04/04 08:32:21;;;;;;;2.77;1.67;;;5.80;54.30;;;;;;4997274;28;20544;-69
2023/04/04 08:34:48;;;;;;;2.70;1.47;;;5.80;53.80;;;;;;4996946;28;20532;-70
2023/04/04 08:37:15;;;;;;;2.40;1.40;;;6.00;53.20;;;;;;4996973;28;20563;-70
2023/04/04 08:39:42;;;;;;;2.87;1.60;;;5.70;52.80;;;;;;4996578;28;20450;-69
2023/04/04 08:42:11;;;;;;;2.70;1.70;;;5.60;53.50;;;;;;4996634;28;20556;-70
2023/04/04 08:44:41;;;;;;;2.20;1.30;;;5.60;54.70;;;;;;4995736;28;20829;-71
2023/04/04 08:47:10;;;;;;;3.50;2.00;;;5.50;53.10;;;;;;4996327;28;21009;-69
2023/04/04 08:49:41;;;;;;;4.80;1.80;;;5.50;54.40;;;;;;4996472;28;20457;-70
2023/04/04 08:52:11;;;;;;;3.03;2.17;;;5.50;54.70;;;;;;4996436;28;20457;-69
2023/04/04 08:54:39;;;;;;;2.60;1.60;;;5.60;55.30;;;;;;4995626;28;20911;-70
2023/04/04 08:57:07;;;;;;;2.37;1.63;;;5.60;54.40;;;;;;4996514;28;20488;-69
2023/04/04 08:59:33;;;;;;;3.50;1.77;;;5.50;52.50;;;;;;4996277;28;20504;-69
2023/04/04 09:02:15;;;;;;;2.60;1.50;;;5.40;53.90;;;;;;4995932;28;20465;-70
2023/04/04 09:04:43;;;;;;;3.17;1.73;;;5.30;55.00;;;;;;4996217;28;20916;-70
2023/04/04 09:07:10;;;;;;;2.60;1.90;;;5.40;53.90;;;;;;4996012;28;20446;-69
2023/04/04 09:09:37;;;;;;;2.20;1.20;;;5.40;54.40;;;;;;4996189;28;20460;-70
2023/04/04 09:12:05;;;;;;;2.40;1.40;;;5.30;53.80;;;;;;4995586;28;20442;-70
2023/04/04 09:14:33;;;;;;;2.73;1.40;;;5.50;54.70;;;;;;4994907;28;20481;-70
2023/04/04 09:17:00;;;;;;;2.13;1.33;;;5.50;53.50;;;;;;5064011;23;20546;-74
2023/04/04 09:19:28;;;;;;;5.63;1.70;;;5.30;53.40;;;;;;5013611;28;20444;-74
2023/04/04 09:21:55;;;;;;;2.30;1.47;;;5.30;54.20;;;;;;5014115;28;20490;-74
2023/04/04 09:24:22;;;;;;;2.67;1.37;;;5.40;54.50;;;;;;5014415;28;20448;-77
2023/04/04 09:26:50;;;;;;;2.67;1.50;;;5.60;54.80;;;;;;5014194;28;20473;-77
2023/04/04 09:29:18;;;;;;;2.53;1.70;;;5.70;53.20;;;;;;5013880;28;21004;-76
2023/04/04 09:31:45;;;;;;;3.20;2.53;;;5.80;52.80;;;;;;5014226;28;20819;-76
2023/04/04 09:34:13;;;;;;;3.23;1.80;;;6.00;53.00;;;;;;5014173;28;20535;-76
2023/04/04 09:36:41;;;;;;;2.50;1.50;;;6.00;53.00;;;;;;5013657;28;20961;-75
2023/04/04 09:39:08;;;;;;;2.53;1.40;;;6.30;54.00;;;;;;5013711;28;20979;-76
2023/04/04 09:41:38;;;;;;;2.87;1.57;;;6.50;53.50;;;;;;5014076;28;20451;-75
2023/04/04 09:44:06;;;;;;;3.40;1.70;;;6.70;53.10;;;;;;5013963;28;20480;-77
2023/04/04 09:46:34;;;;;;;2.40;1.20;;;6.60;50.80;;;;;;5014074;28;20519;-77
2023/04/04 09:49:01;;;;;;;2.47;1.93;;;6.40;51.90;;;;;;5013655;28;20910;-76
2023/04/04 09:51:34;;;;;;;2.40;1.40;;;6.50;52.70;;;;;;5013901;28;20444;-77
2023/04/04 09:54:05;;;;;;;2.30;1.40;;;6.60;51.80;;;;;;5013711;28;20428;-76
2023/04/04 09:56:33;;;;;;;2.30;1.30;;;6.70;52.00;;;;;;5013459;28;20996;-77
2023/04/04 09:59:01;;;;;;;2.70;1.50;;;7.20;52.60;;;;;;5013616;28;20534;-77
2023/04/04 10:01:28;;;;;;;2.97;1.63;;;7.20;51.70;;;;;;5014066;28;20535;-76
2023/04/04 10:03:57;;;;;;;2.80;1.77;;;7.30;52.10;;;;;;5013702;28;20836;-77
2023/04/04 10:06:24;;;;;;;2.60;1.70;;;7.30;50.80;;;;;;5013587;28;20515;-76
2023/04/04 10:08:52;;;;;;;2.53;1.80;;;7.40;49.30;;;;;;5013608;28;20532;-76
2023/04/04 10:11:30;;;;;;;3.27;1.67;;;7.10;50.30;;;;;;5013630;28;20475;-75
2023/04/04 10:13:57;;;;;;;2.63;1.60;;;6.90;50.50;;;;;;5013335;28;20929;-77
2023/04/04 10:16:25;;;;;;;3.57;1.40;;;7.10;49.90;;;;;;5013136;28;20488;-76
2023/04/04 10:18:52;;;;;;;2.60;1.60;;;7.00;50.80;;;;;;5013522;28;20484;-76
2023/04/04 10:21:19;;;;;;;2.20;1.40;;;6.90;51.80;;;;;;5013449;28;20448;-75
2023/04/04 10:23:46;;;;;;;3.43;1.50;;;7.00;51.70;;;;;;5013593;28;20457;-76
2023/04/04 10:26:13;;;;;;;3.07;1.70;;;7.10;51.70;;;;;;5013240;28;20468;-76
2023/04/04 10:28:42;;;;;;;2.50;1.40;;;7.40;51.10;;;;;;5013437;28;20449;-76
2023/04/04 10:31:15;;;;;;;2.33;1.30;;;7.60;50.80;;;;;;5016557;28;20456;-77
2023/04/04 10:33:50;;;;;;;2.27;1.40;;;7.60;51.40;;;;;;5017263;28;20436;-76
2023/04/04 10:36:21;;;;;;;2.40;1.33;;;7.70;49.90;;;;;;5017266;28;20977;-76
2023/04/04 10:38:57;;;;;;;2.87;1.30;;;7.70;50.10;;;;;;5017101;28;20911;-77
2023/04/04 10:41:26;;;;;;;2.97;1.53;;;7.70;50.70;;;;;;5017646;28;20471;-76
2023/04/04 10:43:59;;;;;;;2.47;1.30;;;7.80;51.30;;;;;;5017016;28;20876;-78
2023/04/04 10:46:29;;;;;;;2.10;1.50;;;7.80;50.70;;;;;;5017047;28;20480;-77
2023/04/04 10:49:13;;;;;;;2.73;1.50;;;7.80;50.30;;;;;;5017569;28;20519;-75
2023/04/04 10:51:40;;;;;;;3.90;1.70;;;7.50;50.60;;;;;;5017286;28;20480;-76
2023/04/04 10:54:07;;;;;;;3.70;1.57;;;7.40;51.10;;;;;;5017106;28;20455;-77
2023/04/04 10:56:35;;;;;;;2.70;1.57;;;7.80;51.10;;;;;;5017036;28;20472;-76
2023/04/04 10:59:15;;;;;;;2.53;1.47;;;8.00;47.70;;;;;;5016815;28;20483;-75
2023/04/04 11:01:57;;;;;;;2.37;1.53;;;8.30;49.00;;;;;;5017408;28;20441;-77
2023/04/04 11:04:31;;;;;;;2.30;1.33;;;8.40;49.50;;;;;;5017506;28;20440;-77
2023/04/04 11:07:16;;;;;;;2.70;1.83;;;8.20;49.50;;;;;;5017391;28;20467;-78
2023/04/04 11:09:50;;;;;;;2.97;1.30;;;8.00;48.60;;;;;;5017288;28;20452;-77
2023/04/04 11:12:22;;;;;;;2.63;1.30;;;7.90;48.60;;;;;;5017467;28;20450;-77
2023/04/04 11:15:08;;;;;;;2.20;1.43;;;7.80;49.20;;;;;;5017476;28;20440;-77
2023/04/04 11:17:59;;;;;;;2.77;1.67;;;7.70;50.60;;;;;;5017346;28;20814;-76
2023/04/04 11:20:34;;;;;;;3.00;2.07;;;7.90;50.30;;;;;;5005756;28;20460;-78
2023/04/04 11:23:09;;;;;;;2.83;1.40;;;8.00;49.70;;;;;;5020269;28;20494;-76
2023/04/04 11:25:41;;;;;;;3.10;1.53;;;8.10;49.70;;;;;;5017797;28;20468;-77
2023/04/04 11:28:26;;;;;;;2.50;1.60;;;8.30;47.40;;;;;;5016992;28;20976;-76
2023/04/04 11:31:26;;;;;;;2.20;1.23;;;8.30;48.30;;;;;;5017414;28;20443;-76
2023/04/04 11:33:59;;;;;;;2.57;1.50;;;8.80;48.00;;;;;;5017209;28;20441;-76
2023/04/04 11:36:53;;;;;;;2.17;1.20;;;9.40;48.10;;;;;;5016763;28;20475;-77
2023/04/04 11:39:27;;;;;;;2.50;1.40;;;9.60;46.20;;;;;;5016272;28;20570;-77
2023/04/04 11:41:57;;;;;;;2.70;1.37;;;9.40;46.90;;;;;;5015898;28;20790;-77
2023/04/04 11:44:28;;;;;;;3.57;1.47;;;9.60;48.10;;;;;;5016023;28;20918;-76
2023/04/04 11:46:55;;;;;;;2.30;1.30;;;9.60;46.50;;;;;;5015942;28;21032;-75
2023/04/04 11:49:28;;;;;;;2.63;1.20;;;9.10;47.10;;;;;;5016860;28;20449;-76
2023/04/04 11:51:55;;;;;;;2.50;1.50;;;9.00;47.00;;;;;;5016508;28;20440;-76
2023/04/04 11:54:22;;;;;;;2.50;1.30;;;8.90;47.10;;;;;;5016141;28;20452;-77
2023/04/04 11:56:49;;;;;;;2.70;1.63;;;9.00;47.10;;;;;;5016076;28;20475;-76
2023/04/04 11:59:19;;;;;;;2.40;1.40;;;9.30;46.00;;;;;;5015808;28;21035;-77
2023/04/04 12:01:46;;;;;;;3.40;1.60;;;9.30;46.30;;;;;;5016171;28;20449;-77
2023/04/04 12:04:17;;;;;;;2.40;1.53;;;9.10;46.30;;;;;;5016017;28;20448;-76
2023/04/04 12:06:49;;;;;;;2.90;1.50;;;9.00;47.00;;;;;;5015755;28;21073;-76
2023/04/04 12:09:17;;;;;;;2.87;1.50;;;9.30;47.70;;;;;;5015994;28;20437;-76
2023/04/04 12:11:45;;;;;;;3.00;1.80;;;9.80;45.90;;;;;;5016424;28;20527;-77
2023/04/04 12:14:17;;;;;;;2.63;1.50;;;9.80;44.00;;;;;;5016349;28;20487;-76
2023/04/04 12:16:43;;;;;;;2.67;1.30;;;10.00;44.70;;;;;;5015764;28;20578;-76
2023/04/04 12:19:11;;;;;;;2.17;1.43;;;10.50;45.00;;;;;;5016270;28;20480;-77
2023/04/04 12:21:38;;;;;;;2.60;1.57;;;10.50;44.70;;;;;;5015902;28;20455;-77
2023/04/04 12:24:07;;;;;;;2.40;1.40;;;10.00;44.20;;;;;;5015974;28;20451;-75
2023/04/04 12:26:35;;;;;;;2.80;1.60;;;9.80;46.20;;;;;;5016134;28;20476;-76
2023/04/04 12:29:02;;;;;;;2.87;1.50;;;10.00;44.30;;;;;;5016486;28;20502;-76
2023/04/04 12:31:30;;;;;;;2.30;1.40;;;9.80;43.70;;;;;;5018479;28;20850;-77
2023/04/04 12:33:58;;;;;;;2.67;1.50;;;9.90;42.40;;;;;;5018380;28;20460;-77
2023/04/04 12:36:37;;;;;;;2.40;1.33;;;10.10;44.50;;;;;;5019397;28;20480;-76
2023/04/04 12:39:08;;;;;;;2.30;1.40;;;10.30;43.60;;;;;;5019919;28;20465;-75
2023/04/04 12:41:35;;;;;;;2.47;1.30;;;10.40;43.80;;;;;;5022234;28;20452;-75
2023/04/04 12:44:03;;;;;;;2.43;1.37;;;10.10;43.60;;;;;;5022813;28;20461;-76
2023/04/04 12:46:37;;;;;;;2.73;1.50;;;10.00;43.00;;;;;;5019244;28;20464;-77
2023/04/04 12:49:05;;;;;;;2.07;1.30;;;10.10;44.10;;;;;;5021928;28;20432;-76
2023/04/04 12:51:32;;;;;;;2.97;1.30;;;10.30;44.00;;;;;;5033878;28;20441;-76
2023/04/04 12:53:59;;;;;;;3.17;1.30;;;10.50;42.70;;;;;;5025798;28;20979;-77
2023/04/04 12:56:28;;;;;;;2.30;1.20;;;10.40;42.80;;;;;;5026763;28;20515;-76
2023/04/04 12:59:02;;;;;;;2.20;1.30;;;10.20;43.80;;;;;;5025211;28;20481;-76
2023/04/04 13:01:30;;;;;;;2.33;1.30;;;10.30;42.70;;;;;;5022461;28;20910;-77
2023/04/04 13:03:57;;;;;;;2.40;1.43;;;10.10;43.10;;;;;;5022917;28;20463;-76
2023/04/04 13:06:28;;;;;;;2.40;1.40;;;9.90;43.30;;;;;;5023931;28;20471;-76
2023/04/04 13:08:56;;;;;;;2.10;1.30;;;9.90;43.00;;;;;;5017527;28;20457;-76
2023/04/04 13:11:23;;;;;;;2.77;1.50;;;9.90;43.50;;;;;;5015327;28;20484;-77
2023/04/04 13:14:00;;;;;;;2.87;1.80;;;9.80;43.50;;;;;;5014967;28;20454;-75
2023/04/04 13:16:32;;;;;;;3.00;1.77;;;9.80;43.40;;;;;;5014458;28;20472;-77
2023/04/04 13:18:59;;;;;;;2.47;1.57;;;9.50;42.90;;;;;;5014684;28;20487;-75
2023/04/04 13:21:26;;;;;;;2.10;1.40;;;9.60;44.50;;;;;;5015456;28;20448;-76
2023/04/04 13:23:53;;;;;;;2.67;1.30;;;9.70;43.20;;;;;;5014342;28;20463;-78
2023/04/04 13:26:20;;;;;;;2.87;1.57;;;9.60;43.70;;;;;;5015387;28;20472;-78
2023/04/04 13:28:47;;;;;;;2.63;1.30;;;9.60;44.80;;;;;;5014394;28;20480;-77
2023/04/04 13:31:16;;;;;;;2.20;1.33;;;9.90;44.90;;;;;;5014394;28;20457;-76
2023/04/04 13:33:43;;;;;;;2.60;1.57;;;10.20;43.30;;;;;;5015162;28;20456;-76
2023/04/04 13:36:09;;;;;;;2.97;1.40;;;10.20;43.90;;;;;;5014129;28;20472;-76
2023/04/04 13:38:36;;;;;;;2.50;1.40;;;10.40;43.10;;;;;;5014287;28;20492;-77
2023/04/04 13:41:03;;;;;;;2.63;1.47;;;10.20;43.00;;;;;;5014371;28;20455;-76
2023/04/04 13:43:29;;;;;;;2.77;1.53;;;10.60;45.00;;;;;;5014379;28;20452;-77
2023/04/04 13:45:56;;;;;;;2.50;1.60;;;11.00;42.90;;;;;;5014408;28;20476;-76
2023/04/04 13:48:25;;;;;;;2.90;1.37;;;10.90;42.70;;;;;;5015185;28;20448;-77
2023/04/04 13:50:53;;;;;;;2.40;1.50;;;10.80;44.10;;;;;;5014071;28;20945;-75
2023/04/04 13:53:20;;;;;;;3.40;1.40;;;11.20;44.60;;;;;;5013971;28;20539;-76
2023/04/04 13:55:47;;;;;;;2.80;1.70;;;11.70;43.20;;;;;;5013390;28;20472;-76
2023/04/04 13:58:18;;;;;;;2.90;1.47;;;12.00;41.50;;;;;;5014305;28;20455;-77
2023/04/04 14:00:46;;;;;;;2.50;1.60;;;12.10;41.20;;;;;;5014141;28;20429;-77
2023/04/04 14:03:12;;;;;;;2.20;1.37;;;12.10;41.10;;;;;;5013906;28;20949;-77
2023/04/04 14:05:40;;;;;;;2.77;1.40;;;11.70;42.10;;;;;;5013544;28;20588;-77
2023/04/04 14:08:07;;;;;;;2.23;1.43;;;11.90;42.40;;;;;;5013709;28;20476;-76
2023/04/04 14:10:34;;;;;;;2.73;1.53;;;12.30;41.40;;;;;;5013692;28;20941;-77
2023/04/04 14:13:01;;;;;;;3.20;1.60;;;12.50;41.00;;;;;;5014088;28;20446;-76
2023/04/04 14:15:29;;;;;;;4.13;1.60;;;12.20;41.20;;;;;;5012607;28;20972;-76
2023/04/04 14:17:55;;;;;;;3.00;1.70;;;11.90;41.20;;;;;;5013845;28;20532;-76
2023/04/04 14:20:22;;;;;;;2.97;1.50;;;11.90;41.70;;;;;;5016640;28;20530;-77
2023/04/04 14:22:50;;;;;;;2.80;1.83;;;12.00;41.20;;;;;;5020082;28;20448;-78
2023/04/04 14:25:17;;;;;;;2.40;1.60;;;11.80;42.30;;;;;;5019288;28;20465;-77
2023/04/04 14:27:43;;;;;;;2.03;1.40;;;12.00;42.60;;;;;;5017293;28;20453;-77
2023/04/04 14:30:11;;;;;;;3.07;1.50;;;12.30;41.20;;;;;;5013390;28;20543;-76
2023/04/04 14:32:38;;;;;;;2.90;1.47;;;12.30;39.90;;;;;;5013428;28;20812;-76
2023/04/04 14:35:05;;;;;;;2.73;1.73;;;12.40;39.80;;;;;;5013198;28;20806;-75
2023/04/04 14:37:31;;;;;;;3.13;1.73;;;12.70;40.00;;;;;;5013345;28;20457;-77
2023/04/04 14:40:00;;;;;;;3.30;1.90;;;12.50;39.20;;;;;;5013041;28;20522;-75
2023/04/04 14:42:26;;;;;;;2.47;1.50;;;13.10;39.80;;;;;;5013278;28;20456;-77
2023/04/04 14:44:53;;;;;;;2.27;1.33;;;14.30;36.90;;;;;;5013005;28;20448;-77
2023/04/04 14:47:20;;;;;;;2.30;1.40;;;16.00;35.10;;;;;;5013211;28;20456;-77
2023/04/04 14:49:47;;;;;;;2.40;1.37;;;17.20;33.40;;;;;;5013277;28;20444;-77
2023/04/04 14:52:14;;;;;;;2.27;1.37;;;17.50;32.80;;;;;;5013235;28;20469;-76
2023/04/04 14:54:41;;;;;;;2.30;1.70;;;17.70;32.00;;;;;;5012987;28;20452;-77
2023/04/04 14:57:09;;;;;;;2.07;1.30;;;18.30;32.10;;;;;;5012957;28;20472;-76
2023/04/04 14:59:36;;;;;;;2.37;1.27;;;17.70;32.50;;;;;;5012682;28;20897;-76
2023/04/04 15:02:02;;;;;;;2.40;1.40;;;16.50;32.60;;;;;;5013058;28;20499;-77
2023/04/04 15:04:29;;;;;;;3.13;1.67;;;15.40;34.90;;;;;;5012949;28;20452;-77
2023/04/04 15:06:59;;;;;;;2.80;1.87;;;15.40;35.40;;;;;;5012938;28;20469;-77
2023/04/04 15:09:26;;;;;;;3.80;1.73;;;14.60;36.00;;;;;;5012836;28;20553;-76
2023/04/04 15:11:52;;;;;;;2.63;1.60;;;14.60;36.80;;;;;;5012956;28;20472;-78
2023/04/04 15:14:21;;;;;;;2.60;1.37;;;15.40;36.40;;;;;;5012795;28;20488;-77
2023/04/04 15:16:47;;;;;;;2.40;1.47;;;16.60;35.70;;;;;;5013658;28;20510;-76
2023/04/04 15:19:14;;;;;;;3.53;1.60;;;18.00;33.00;;;;;;5016078;28;21051;-76
2023/04/04 15:21:41;;;;;;;3.37;1.90;;;18.60;32.50;;;;;;5017025;28;20514;-78
2023/04/04 15:24:08;;;;;;;2.90;1.40;;;18.80;31.70;;;;;;5016290;28;20459;-77
2023/04/04 15:26:34;;;;;;;2.50;1.50;;;18.50;31.90;;;;;;5016298;28;20468;-77
2023/04/04 15:29:01;;;;;;;2.50;1.83;;;17.80;32.00;;;;;;5016370;28;20444;-77
2023/04/04 15:31:30;;;;;;;2.60;1.43;;;16.30;33.00;;;;;;5016272;28;20453;-76
2023/04/04 15:33:58;;;;;;;2.30;1.70;;;15.10;35.20;;;;;;5015871;28;20851;-76
2023/04/04 15:36:25;;;;;;;2.93;1.60;;;13.90;37.30;;;;;;5016149;28;20885;-76
2023/04/04 15:38:52;;;;;;;2.50;1.60;;;13.30;38.40;;;;;;5016128;28;20457;-77
2023/04/04 15:41:19;;;;;;;2.47;1.40;;;13.00;39.30;;;;;;5015772;28;20822;-75
2023/04/04 15:43:46;;;;;;;2.40;1.70;;;12.10;39.50;;;;;;5015981;28;20460;-76
2023/04/04 15:46:13;;;;;;;2.73;1.70;;;11.30;41.00;;;;;;5016737;28;20555;-76
2023/04/04 15:48:41;;;;;;;2.37;1.57;;;10.40;42.40;;;;;;5017003;28;20498;-78
2023/04/04 15:51:07;;;;;;;2.87;1.60;;;10.20;42.90;;;;;;5017372;28;20499;-77
2023/04/04 15:53:35;;;;;;;2.33;1.40;;;10.10;43.60;;;;;;5016103;28;20979;-77
2023/04/04 15:56:02;;;;;;;2.80;1.70;;;9.80;44.00;;;;;;5015449;28;20472;-77
2023/04/04 15:58:28;;;;;;;2.70;1.60;;;9.70;44.60;;;;;;5016114;28;20456;-78